createdAt,value
2022-08-02T00:00:35.023Z,70.39
2022-08-02T00:03:02.834Z,70.69
2022-08-02T00:05:29.783Z,70.74
2022-08-02T00:07:56.805Z,70.90
2022-08-02T00:10:23.934Z,71.62
2022-08-02T00:12:51.799Z,71.36
2022-08-02T00:15:20.346Z,71.29
2022-08-02T00:17:48.615Z,70.91
2022-08-02T00:20:16.291Z,71.46
2022-08-02T00:22:44.203Z,71.30
2022-08-02T00:25:11.309Z,71.01
2022-08-02T00:27:38.670Z,71.15
2022-08-02T00:30:06.150Z,71.17
2022-08-02T00:32:33.266Z,71.02
2022-08-02T00:35:02.058Z,71.63
2022-08-02T00:37:29.065Z,71.47
2022-08-02T00:39:57.500Z,71.74
2022-08-02T00:42:26.256Z,71.63
2022-08-02T00:44:53.286Z,71.14
2022-08-02T00:47:20.272Z,71.30
2022-08-02T00:49:47.930Z,71.59
2022-08-02T00:52:15.173Z,71.79
2022-08-02T00:54:42.525Z,72.00
2022-08-02T00:57:09.585Z,71.71
2022-08-02T00:59:36.601Z,71.78
2022-08-02T01:02:03.879Z,71.98
2022-08-02T01:04:32.371Z,72.00
2022-08-02T01:07:01.144Z,71.85
2022-08-02T01:09:31.682Z,71.75
2022-08-02T01:12:02.541Z,71.62
2022-08-02T01:14:30.474Z,72.05
2022-08-02T01:17:08.950Z,71.59
2022-08-02T01:19:45.504Z,71.72
2022-08-02T01:22:39.660Z,71.33
2022-08-02T01:25:30.035Z,71.98
2022-08-02T01:28:32.067Z,72.34
2022-08-02T01:31:05.843Z,72.09
2022-08-02T01:33:39.610Z,72.55
2022-08-02T01:36:10.773Z,72.36
2022-08-02T01:38:49.295Z,72.50
2022-08-02T01:41:20.360Z,72.66
2022-08-02T01:43:56.549Z,72.55
2022-08-02T01:46:24.725Z,72.32
2022-08-02T01:48:54.082Z,72.67
2022-08-02T01:51:41.187Z,72.63
2022-08-02T01:54:12.394Z,72.14
2022-08-02T01:56:40.969Z,72.04
2022-08-02T01:59:09.453Z,71.64
2022-08-02T02:01:37.469Z,71.89
2022-08-02T02:04:10.280Z,71.88
2022-08-02T02:06:37.547Z,71.46
2022-08-02T02:09:05.338Z,71.53
2022-08-02T02:12:13.876Z,71.57
2022-08-02T02:14:21.086Z,71.44
2022-08-02T02:16:48.795Z,71.24
2022-08-02T02:19:21.194Z,71.20
2022-08-02T02:21:48.860Z,71.65
2022-08-02T02:24:15.922Z,71.91
2022-08-02T02:26:52.329Z,71.98
2022-08-02T02:29:22.124Z,72.25
2022-08-02T02:31:53.298Z,72.35
2022-08-02T02:34:35.905Z,72.58
2022-08-02T02:37:05.384Z,72.03
2022-08-02T02:39:33.804Z,72.54
2022-08-02T02:42:03.914Z,72.82
2022-08-02T02:44:32.242Z,72.67
2022-08-02T02:46:59.985Z,72.66
2022-08-02T02:49:28.261Z,72.95
2022-08-02T02:51:55.981Z,73.41
2022-08-02T02:54:33.212Z,73.48
2022-08-02T02:57:04.627Z,73.35
2022-08-02T02:59:33.009Z,73.78
2022-08-02T03:02:00.312Z,74.42
2022-08-02T03:04:56.277Z,74.65
2022-08-02T03:07:19.734Z,74.82
2022-08-02T03:09:54.214Z,75.10
2022-08-02T03:12:27.163Z,75.10
2022-08-02T03:14:59.593Z,75.43
2022-08-02T03:17:27.690Z,75.18
2022-08-02T03:19:54.864Z,75.22
2022-08-02T03:22:21.787Z,75.71
2022-08-02T03:24:48.752Z,75.39
2022-08-02T03:27:16.284Z,75.39
2022-08-02T03:29:44.162Z,74.92
2022-08-02T03:32:11.660Z,74.91
2022-08-02T03:34:39.222Z,74.48
2022-08-02T03:37:06.914Z,74.62
2022-08-02T03:39:34.364Z,74.21
2022-08-02T03:42:01.547Z,74.32
2022-08-02T03:44:29.504Z,74.72
2022-08-02T03:46:57.241Z,75.31
2022-08-02T03:49:24.525Z,75.38
2022-08-02T03:51:56.696Z,75.63
2022-08-02T03:54:23.886Z,75.34
2022-08-02T03:57:03.722Z,75.53
2022-08-02T03:59:43.690Z,75.79
2022-08-02T04:02:12.791Z,75.09
2022-08-02T04:04:40.351Z,75.23
2022-08-02T04:07:08.429Z,75.19
2022-08-02T04:09:36.018Z,75.12
2022-08-02T04:12:02.980Z,75.46
2022-08-02T04:14:31.011Z,75.25
2022-08-02T04:17:08.115Z,75.49
2022-08-02T04:19:44.045Z,75.36
2022-08-02T04:22:16.670Z,74.92
2022-08-02T04:24:49.782Z,74.98
2022-08-02T04:27:50.929Z,74.36
2022-08-02T04:30:08.342Z,74.33
2022-08-02T04:32:35.845Z,73.43
2022-08-02T04:35:20.125Z,73.99
2022-08-02T04:38:05.557Z,73.91
2022-08-02T04:40:36.248Z,73.70
2022-08-02T04:43:03.660Z,73.69
2022-08-02T04:45:31.322Z,73.71
2022-08-02T04:48:05.102Z,73.55
2022-08-02T04:50:34.223Z,74.46
2022-08-02T04:53:10.800Z,74.53
2022-08-02T04:55:57.309Z,74.40
2022-08-02T04:58:40.134Z,73.75
2022-08-02T05:01:09.219Z,73.70
2022-08-02T05:03:36.230Z,73.06
2022-08-02T05:06:03.553Z,72.77
2022-08-02T05:08:53.258Z,72.59
2022-08-02T05:11:34.522Z,71.85
2022-08-02T05:14:05.186Z,71.55
2022-08-02T05:16:32.505Z,69.96
2022-08-02T05:19:00.927Z,65.75
2022-08-02T05:21:28.278Z,60.48
2022-08-02T05:23:55.290Z,56.37
2022-08-02T05:26:22.227Z,52.67
2022-08-02T05:28:50.802Z,51.18
2022-08-02T05:31:17.748Z,49.63
2022-08-02T05:33:44.727Z,49.17
2022-08-02T05:36:12.736Z,47.44
2022-08-02T05:39:04.834Z,46.08
2022-08-02T05:41:32.413Z,45.50
2022-08-02T05:43:59.503Z,45.11
2022-08-02T05:46:27.409Z,44.41
2022-08-02T05:48:54.887Z,44.50
2022-08-02T05:51:38.469Z,46.72
2022-08-02T05:54:32.758Z,45.78
2022-08-02T05:57:10.332Z,43.64
2022-08-02T05:59:54.651Z,42.28
2022-08-02T06:02:37.096Z,41.18
2022-08-02T06:05:11.327Z,43.69
2022-08-02T06:07:41.546Z,43.32
2022-08-02T06:10:10.162Z,43.67
2022-08-02T06:12:44.521Z,45.06
2022-08-02T06:15:14.341Z,47.98
2022-08-02T06:17:45.672Z,46.33
2022-08-02T06:20:14.934Z,42.69
2022-08-02T06:22:44.120Z,39.07
2022-08-02T06:25:50.118Z,37.21
2022-08-02T06:28:03.668Z,36.23
2022-08-02T06:30:33.420Z,35.52
2022-08-02T06:33:00.885Z,35.10
2022-08-02T06:35:40.432Z,34.63
2022-08-02T06:38:08.285Z,34.83
2022-08-02T06:40:35.166Z,33.65
2022-08-02T06:43:31.270Z,34.02
2022-08-02T06:47:08.354Z,34.17
2022-08-02T06:48:46.532Z,33.52
2022-08-02T06:51:13.979Z,33.77
2022-08-02T06:53:41.314Z,32.54
2022-08-02T06:56:09.972Z,31.50
2022-08-02T06:58:38.446Z,31.00
2022-08-02T07:01:07.589Z,30.12
2022-08-02T07:03:37.660Z,30.39
2022-08-02T07:06:05.809Z,30.28
2022-08-02T07:08:33.202Z,30.62
2022-08-02T07:11:02.155Z,30.08
2022-08-02T07:13:29.355Z,29.28
2022-08-02T07:15:57.160Z,28.45
2022-08-02T07:18:25.355Z,28.29
2022-08-02T07:20:53.071Z,27.73
2022-08-02T07:23:23.644Z,27.19
2022-08-02T07:26:02.230Z,27.32
2022-08-02T07:28:31.755Z,27.38
2022-08-02T07:30:59.086Z,27.72
2022-08-02T07:33:37.470Z,27.59
2022-08-02T07:36:09.677Z,27.91
2022-08-02T07:38:44.126Z,26.66
2022-08-02T07:41:14.099Z,26.08
2022-08-02T07:43:41.431Z,25.22
2022-08-02T07:46:08.550Z,25.03
2022-08-02T07:48:35.843Z,23.75
2022-08-02T07:51:03.095Z,23.66
2022-08-02T07:53:50.854Z,22.89
2022-08-02T07:56:19.314Z,22.95
2022-08-02T07:58:46.635Z,22.76
2022-08-02T08:01:15.930Z,23.46
2022-08-02T08:03:44.093Z,24.92
2022-08-02T08:06:12.452Z,24.82
2022-08-02T08:08:41.928Z,25.65
2022-08-02T08:11:09.459Z,25.21
2022-08-02T08:13:37.158Z,24.21
2022-08-02T08:16:05.159Z,23.54
2022-08-02T08:18:33.384Z,22.84
2022-08-02T08:21:01.929Z,22.67
2022-08-02T08:23:32.839Z,22.17
2022-08-02T08:26:01.136Z,22.71
2022-08-02T08:28:28.952Z,21.93
2022-08-02T08:30:56.298Z,22.27
2022-08-02T08:33:25.464Z,22.20
2022-08-02T08:35:53.402Z,21.55
2022-08-02T08:38:22.307Z,20.78
2022-08-02T08:40:51.584Z,20.69
2022-08-02T08:43:18.926Z,19.68
2022-08-02T08:45:55.952Z,20.42
2022-08-02T08:48:31.098Z,20.29
2022-08-02T08:51:08.382Z,19.56
2022-08-02T08:53:41.602Z,19.96
2022-08-02T08:56:14.099Z,20.06
2022-08-02T08:58:44.987Z,19.59
2022-08-02T09:01:14.704Z,20.04
2022-08-02T09:03:42.639Z,21.27
2022-08-02T09:06:12.997Z,20.14
2022-08-02T09:08:40.265Z,20.94
2022-08-02T09:11:14.547Z,19.94
2022-08-02T09:13:53.470Z,20.79
2022-08-02T09:16:34.591Z,20.87
2022-08-02T09:19:20.978Z,21.13
2022-08-02T09:22:20.776Z,20.85
2022-08-02T09:24:49.984Z,21.19
2022-08-02T09:27:19.864Z,20.49
2022-08-02T09:30:12.125Z,21.49
2022-08-02T09:32:50.088Z,22.01
2022-08-02T09:36:18.752Z,20.69
2022-08-02T09:39:03.078Z,22.39
2022-08-02T09:41:32.358Z,22.89
2022-08-02T09:44:05.148Z,22.10
2022-08-02T09:46:38.558Z,21.87
2022-08-02T09:49:15.761Z,21.64
2022-08-02T09:51:47.646Z,21.66
2022-08-02T09:54:25.276Z,20.90
2022-08-02T09:56:54.590Z,21.34
2022-08-02T09:59:25.122Z,21.65
2022-08-02T10:02:01.929Z,21.37
2022-08-02T10:04:34.175Z,20.98
2022-08-02T10:07:13.294Z,21.08
2022-08-02T10:09:47.440Z,20.16
2022-08-02T10:12:16.401Z,20.74
2022-08-02T10:14:45.590Z,20.81
2022-08-02T10:17:12.736Z,21.41
2022-08-02T10:20:03.101Z,21.39
2022-08-02T10:22:29.182Z,23.35
2022-08-02T10:24:57.999Z,23.68
2022-08-02T10:27:25.967Z,24.28
2022-08-02T10:29:56.459Z,24.54
2022-08-02T10:32:38.352Z,24.31
2022-08-02T10:35:27.040Z,24.43
2022-08-02T10:37:58.198Z,24.35
2022-08-02T10:40:28.348Z,25.82
2022-08-02T10:43:01.545Z,26.50
2022-08-02T10:45:29.214Z,26.04
2022-08-02T10:48:17.331Z,25.76
2022-08-02T10:50:47.333Z,25.41
2022-08-02T10:53:35.312Z,26.07
2022-08-02T10:56:04.812Z,25.61
2022-08-02T10:58:33.504Z,26.06
2022-08-02T11:01:07.781Z,25.38
2022-08-02T11:03:40.742Z,25.57
2022-08-02T11:06:25.636Z,25.60
2022-08-02T11:09:35.935Z,26.08
2022-08-02T11:12:13.471Z,26.42
2022-08-02T11:15:07.684Z,25.83
2022-08-02T11:17:56.695Z,25.29
2022-08-02T11:20:26.350Z,25.51
2022-08-02T11:23:23.624Z,25.67
2022-08-02T11:26:36.510Z,25.83
2022-08-02T11:29:07.715Z,26.30
2022-08-02T11:31:49.350Z,26.56
2022-08-02T11:34:28.931Z,25.80
2022-08-02T11:37:08.490Z,26.11
2022-08-02T11:39:40.481Z,24.96
2022-08-02T11:42:09.836Z,25.28
2022-08-02T11:44:41.959Z,25.44
2022-08-02T11:47:09.992Z,24.68
2022-08-02T11:49:40.410Z,25.12
2022-08-02T11:52:12.417Z,24.99
2022-08-02T11:54:43.483Z,25.03
2022-08-02T11:57:20.819Z,25.82
2022-08-02T11:59:51.523Z,26.13
2022-08-02T12:02:38.553Z,25.97
2022-08-02T12:05:09.367Z,25.47
2022-08-02T12:07:45.969Z,25.99
2022-08-02T12:10:21.755Z,26.16
2022-08-02T12:12:54.308Z,26.23
2022-08-02T12:15:45.792Z,26.69
2022-08-02T12:18:39.221Z,26.45
2022-08-02T12:21:27.722Z,27.14
2022-08-02T12:24:00.017Z,26.80
2022-08-02T12:26:29.650Z,26.70
2022-08-02T12:29:03.147Z,26.12
2022-08-02T12:31:56.524Z,26.20
2022-08-02T12:34:31.945Z,26.65
2022-08-02T12:37:10.921Z,26.25
2022-08-02T12:39:41.818Z,25.99
2022-08-02T12:42:14.146Z,25.47
2022-08-02T12:44:58.094Z,26.47
2022-08-02T12:47:35.444Z,26.43
2022-08-02T12:50:18.036Z,26.49
2022-08-02T12:52:47.037Z,26.49
2022-08-02T12:55:24.229Z,26.79
2022-08-02T12:57:55.799Z,27.21
2022-08-02T13:00:26.731Z,26.61
2022-08-02T13:02:56.395Z,26.03
2022-08-02T13:05:29.771Z,26.04
2022-08-02T13:08:19.316Z,26.27
2022-08-02T13:10:51.382Z,25.67
2022-08-02T13:13:22.936Z,25.83
2022-08-02T13:15:52.241Z,25.30
2022-08-02T13:18:21.935Z,25.89
2022-08-02T13:20:50.551Z,25.58
2022-08-02T13:23:21.100Z,25.87
2022-08-02T13:25:52.754Z,25.40
2022-08-02T13:28:24.366Z,25.33
2022-08-02T13:30:52.942Z,25.20
2022-08-02T13:33:22.531Z,25.51
2022-08-02T13:39:06.089Z,25.35
2022-08-02T13:41:34.876Z,25.19
2022-08-02T13:44:09.575Z,25.07
2022-08-02T13:46:45.135Z,24.88
2022-08-02T13:49:19.057Z,25.51
2022-08-02T13:51:48.359Z,25.42
2022-08-02T13:54:16.323Z,25.37
2022-08-02T13:56:45.040Z,25.65
2022-08-02T13:59:54.132Z,25.71
2022-08-02T14:02:02.565Z,25.99
2022-08-02T14:04:30.859Z,25.61
2022-08-02T14:06:59.064Z,25.36
2022-08-02T14:09:33.876Z,26.11
2022-08-02T14:12:01.413Z,26.00
2022-08-02T14:14:28.581Z,26.02
2022-08-02T14:17:01.934Z,26.41
2022-08-02T14:19:29.198Z,26.83
2022-08-02T14:22:11.412Z,26.87
2022-08-02T14:24:43.769Z,27.51
2022-08-02T14:27:11.162Z,27.05
2022-08-02T14:29:38.380Z,27.44
2022-08-02T14:32:05.956Z,27.36
2022-08-02T14:34:33.225Z,27.34
2022-08-02T14:37:00.516Z,27.13
2022-08-02T14:42:47.714Z,28.20
2022-08-02T14:45:43.695Z,27.85
2022-08-02T14:48:12.074Z,27.81
2022-08-02T14:50:39.359Z,27.02
2022-08-02T14:53:06.582Z,27.81
2022-08-02T14:58:34.620Z,27.47
2022-08-02T15:01:02.031Z,26.78
2022-08-02T15:03:29.858Z,26.73
2022-08-02T15:05:58.359Z,27.40
2022-08-02T15:08:25.406Z,27.27
2022-08-02T15:10:52.549Z,27.12
2022-08-02T15:13:19.937Z,27.08
2022-08-02T15:15:48.418Z,27.25
2022-08-02T15:18:15.653Z,27.18
2022-08-02T15:20:53.468Z,27.38
2022-08-02T15:23:25.516Z,27.08
2022-08-02T15:26:05.871Z,27.44
2022-08-02T15:28:33.083Z,27.56
2022-08-02T15:31:00.266Z,27.53
2022-08-02T15:33:27.649Z,27.74
2022-08-02T15:35:54.769Z,27.69
2022-08-02T15:38:23.460Z,27.86
2022-08-02T15:40:53.333Z,27.37
2022-08-02T15:43:21.589Z,27.86
